sensor_id;sensor_type;location;lat;lon;timestamp;P1;durP1;ratioP1;P2;durP2;ratioP2
46377;SDS011;32083;47.360;9.650;2023-12-07T05:00:24;24.25;;;17.90;;
46377;SDS011;32083;47.360;9.650;2023-12-07T05:02:50;34.38;;;19.45;;
46377;SDS011;32083;47.360;9.650;2023-12-07T05:05:16;36.75;;;20.33;;
46377;SDS011;32083;47.360;9.650;2023-12-07T05:07:42;33.65;;;19.88;;
46377;SDS011;32083;47.360;9.650;2023-12-07T05:10:09;41.63;;;20.95;;
46377;SDS011;32083;47.360;9.650;2023-12-07T05:12:35;41.25;;;23.02;;
46377;SDS011;32083;47.360;9.650;2023-12-07T05:15:01;35.58;;;23.23;;
46377;SDS011;32083;47.360;9.650;2023-12-07T05:17:29;48.50;;;24.83;;
46377;SDS011;32083;47.360;9.650;2023-12-07T05:19:55;47.70;;;25.73;;
46377;SDS011;32083;47.360;9.650;2023-12-07T05:22:21;42.72;;;24.98;;
46377;SDS011;32083;47.360;9.650;2023-12-07T05:24:48;43.08;;;24.13;;
46377;SDS011;32083;47.360;9.650;2023-12-07T05:27:15;35.97;;;21.70;;
46377;SDS011;32083;47.360;9.650;2023-12-07T05:29:41;33.42;;;23.20;;
46377;SDS011;32083;47.360;9.650;2023-12-07T05:32:07;37.75;;;20.60;;
46377;SDS011;32083;47.360;9.650;2023-12-07T05:34:33;34.70;;;21.88;;
46377;SDS011;32083;47.360;9.650;2023-12-07T05:37:00;38.50;;;22.85;;
46377;SDS011;32083;47.360;9.650;2023-12-07T05:39:27;32.80;;;20.25;;
46377;SDS011;32083;47.360;9.650;2023-12-07T05:41:53;35.17;;;24.58;;
46377;SDS011;32083;47.360;9.650;2023-12-07T05:44:19;36.95;;;22.15;;
46377;SDS011;32083;47.360;9.650;2023-12-07T05:46:47;33.53;;;20.73;;
46377;SDS011;32083;47.360;9.650;2023-12-07T05:49:14;38.33;;;23.73;;
46377;SDS011;32083;47.360;9.650;2023-12-07T05:51:40;35.85;;;21.85;;
46377;SDS011;32083;47.360;9.650;2023-12-07T05:54:06;39.60;;;23.05;;
46377;SDS011;32083;47.360;9.650;2023-12-07T05:56:32;38.30;;;22.08;;
46377;SDS011;32083;47.360;9.650;2023-12-07T05:58:58;31.08;;;20.02;;
46377;SDS011;32083;47.360;9.650;2023-12-07T06:01:24;41.25;;;22.95;;
46377;SDS011;32083;47.360;9.650;2023-12-07T06:03:50;37.03;;;22.63;;
46377;SDS011;32083;47.360;9.650;2023-12-07T06:06:16;41.20;;;21.98;;
46377;SDS011;32083;47.360;9.650;2023-12-07T06:08:44;34.88;;;23.02;;
46377;SDS011;32083;47.360;9.650;2023-12-07T06:11:09;39.72;;;24.67;;
46377;SDS011;32083;47.360;9.650;2023-12-07T06:13:35;37.03;;;22.17;;
46377;SDS011;32083;47.360;9.650;2023-12-07T06:16:02;37.38;;;23.80;;
46377;SDS011;32083;47.360;9.650;2023-12-07T06:18:30;41.80;;;24.75;;
46377;SDS011;32083;47.360;9.650;2023-12-07T06:20:56;43.88;;;25.63;;
46377;SDS011;32083;47.360;9.650;2023-12-07T06:23:22;41.33;;;24.83;;
46377;SDS011;32083;47.360;9.650;2023-12-07T06:25:48;39.47;;;22.50;;
46377;SDS011;32083;47.360;9.650;2023-12-07T06:28:14;42.90;;;23.58;;
46377;SDS011;32083;47.360;9.650;2023-12-07T06:30:40;39.42;;;24.10;;
46377;SDS011;32083;47.360;9.650;2023-12-07T06:33:06;37.22;;;24.73;;
46377;SDS011;32083;47.360;9.650;2023-12-07T06:35:32;44.50;;;25.35;;
46377;SDS011;32083;47.360;9.650;2023-12-07T06:37:58;37.05;;;22.83;;
46377;SDS011;32083;47.360;9.650;2023-12-07T06:40:24;47.50;;;28.40;;
46377;SDS011;32083;47.360;9.650;2023-12-07T06:42:50;50.38;;;30.42;;
46377;SDS011;32083;47.360;9.650;2023-12-07T06:45:16;59.85;;;34.25;;
46377;SDS011;32083;47.360;9.650;2023-12-07T06:47:42;46.35;;;28.83;;
46377;SDS011;32083;47.360;9.650;2023-12-07T06:50:09;56.22;;;29.77;;
46377;SDS011;32083;47.360;9.650;2023-12-07T06:52:35;52.45;;;30.83;;
46377;SDS011;32083;47.360;9.650;2023-12-07T06:55:05;56.33;;;32.08;;
46377;SDS011;32083;47.360;9.650;2023-12-07T06:57:32;51.00;;;31.98;;
46377;SDS011;32083;47.360;9.650;2023-12-07T06:59:58;48.05;;;24.90;;
46377;SDS011;32083;47.360;9.650;2023-12-07T07:02:24;52.20;;;26.98;;
46377;SDS011;32083;47.360;9.650;2023-12-07T07:04:50;35.85;;;21.88;;
46377;SDS011;32083;47.360;9.650;2023-12-07T07:07:17;54.90;;;26.85;;
46377;SDS011;32083;47.360;9.650;2023-12-07T07:09:43;65.40;;;28.33;;
46377;SDS011;32083;47.360;9.650;2023-12-07T07:12:10;71.80;;;27.65;;
46377;SDS011;32083;47.360;9.650;2023-12-07T07:14:36;37.38;;;21.95;;
46377;SDS011;32083;47.360;9.650;2023-12-07T07:17:02;114.65;;;32.63;;
46377;SDS011;32083;47.360;9.650;2023-12-07T07:19:29;80.32;;;28.08;;
46377;SDS011;32083;47.360;9.650;2023-12-07T07:21:56;61.67;;;27.58;;
46377;SDS011;32083;47.360;9.650;2023-12-07T07:24:22;49.83;;;26.65;;
46377;SDS011;32083;47.360;9.650;2023-12-07T07:26:48;43.00;;;25.33;;
46377;SDS011;32083;47.360;9.650;2023-12-07T07:29:14;46.97;;;23.45;;
46377;SDS011;32083;47.360;9.650;2023-12-07T07:31:40;117.15;;;33.28;;
46377;SDS011;32083;47.360;9.650;2023-12-07T07:34:06;203.90;;;43.13;;
46377;SDS011;32083;47.360;9.650;2023-12-07T07:36:33;208.88;;;42.78;;
46377;SDS011;32083;47.360;9.650;2023-12-07T07:38:59;131.05;;;37.47;;
46377;SDS011;32083;47.360;9.650;2023-12-07T07:41:25;89.18;;;30.60;;
46377;SDS011;32083;47.360;9.650;2023-12-07T07:43:51;72.43;;;27.35;;
46377;SDS011;32083;47.360;9.650;2023-12-07T07:46:17;55.75;;;29.45;;
46377;SDS011;32083;47.360;9.650;2023-12-07T07:48:43;48.83;;;26.35;;
46377;SDS011;32083;47.360;9.650;2023-12-07T07:51:09;122.07;;;38.28;;
46377;SDS011;32083;47.360;9.650;2023-12-07T07:53:35;59.45;;;27.90;;
46377;SDS011;32083;47.360;9.650;2023-12-07T07:56:01;94.40;;;34.58;;
46377;SDS011;32083;47.360;9.650;2023-12-07T07:58:27;40.95;;;23.45;;
46377;SDS011;32083;47.360;9.650;2023-12-07T08:00:53;75.78;;;34.95;;
46377;SDS011;32083;47.360;9.650;2023-12-07T08:03:19;70.40;;;35.97;;
46377;SDS011;32083;47.360;9.650;2023-12-07T08:05:45;60.53;;;34.58;;
46377;SDS011;32083;47.360;9.650;2023-12-07T08:08:12;71.53;;;35.85;;
46377;SDS011;32083;47.360;9.650;2023-12-07T08:10:38;142.57;;;46.53;;
46377;SDS011;32083;47.360;9.650;2023-12-07T08:13:04;138.63;;;44.42;;
46377;SDS011;32083;47.360;9.650;2023-12-07T08:15:32;70.47;;;33.53;;
46377;SDS011;32083;47.360;9.650;2023-12-07T08:17:59;156.98;;;44.10;;
46377;SDS011;32083;47.360;9.650;2023-12-07T08:20:25;416.13;;;81.28;;
46377;SDS011;32083;47.360;9.650;2023-12-07T08:22:51;336.40;;;62.97;;
46377;SDS011;32083;47.360;9.650;2023-12-07T08:25:17;96.20;;;39.30;;
46377;SDS011;32083;47.360;9.650;2023-12-07T08:27:43;462.50;;;88.70;;
46377;SDS011;32083;47.360;9.650;2023-12-07T08:30:11;235.13;;;52.08;;
46377;SDS011;32083;47.360;9.650;2023-12-07T08:32:38;63.88;;;29.63;;
46377;SDS011;32083;47.360;9.650;2023-12-07T08:35:04;392.42;;;72.90;;
46377;SDS011;32083;47.360;9.650;2023-12-07T08:37:31;257.60;;;55.80;;
46377;SDS011;32083;47.360;9.650;2023-12-07T08:39:58;409.98;;;74.13;;
46377;SDS011;32083;47.360;9.650;2023-12-07T08:42:24;136.70;;;35.80;;
46377;SDS011;32083;47.360;9.650;2023-12-07T08:44:52;224.65;;;44.92;;
46377;SDS011;32083;47.360;9.650;2023-12-07T08:47:18;359.25;;;64.35;;
46377;SDS011;32083;47.360;9.650;2023-12-07T08:49:44;264.23;;;56.35;;
46377;SDS011;32083;47.360;9.650;2023-12-07T08:52:10;148.60;;;42.08;;
46377;SDS011;32083;47.360;9.650;2023-12-07T08:54:36;404.63;;;75.63;;
46377;SDS011;32083;47.360;9.650;2023-12-07T08:57:03;422.02;;;71.07;;
46377;SDS011;32083;47.360;9.650;2023-12-07T08:59:29;235.65;;;44.83;;
46377;SDS011;32083;47.360;9.650;2023-12-07T09:01:56;163.90;;;41.53;;
46377;SDS011;32083;47.360;9.650;2023-12-07T09:04:22;158.05;;;42.67;;
46377;SDS011;32083;47.360;9.650;2023-12-07T09:06:48;231.35;;;53.85;;
46377;SDS011;32083;47.360;9.650;2023-12-07T09:09:14;127.43;;;44.05;;
46377;SDS011;32083;47.360;9.650;2023-12-07T09:11:40;84.40;;;36.75;;
46377;SDS011;32083;47.360;9.650;2023-12-07T09:14:06;93.68;;;39.53;;
46377;SDS011;32083;47.360;9.650;2023-12-07T09:16:32;65.97;;;36.33;;
46377;SDS011;32083;47.360;9.650;2023-12-07T09:19:00;58.53;;;33.90;;
46377;SDS011;32083;47.360;9.650;2023-12-07T09:21:27;52.58;;;33.83;;
46377;SDS011;32083;47.360;9.650;2023-12-07T09:23:53;49.53;;;30.73;;
46377;SDS011;32083;47.360;9.650;2023-12-07T09:26:19;45.88;;;27.52;;
46377;SDS011;32083;47.360;9.650;2023-12-07T09:28:45;41.58;;;27.38;;
46377;SDS011;32083;47.360;9.650;2023-12-07T09:31:11;48.60;;;30.02;;
46377;SDS011;32083;47.360;9.650;2023-12-07T09:33:38;40.05;;;26.23;;
46377;SDS011;32083;47.360;9.650;2023-12-07T09:36:04;34.20;;;25.33;;
46377;SDS011;32083;47.360;9.650;2023-12-07T09:38:34;33.90;;;23.08;;
46377;SDS011;32083;47.360;9.650;2023-12-07T09:41:02;34.47;;;24.52;;
46377;SDS011;32083;47.360;9.650;2023-12-07T09:43:28;23.48;;;16.75;;
46377;SDS011;32083;47.360;9.650;2023-12-07T09:45:55;10.27;;;6.82;;
46377;SDS011;32083;47.360;9.650;2023-12-07T09:48:23;6.60;;;4.47;;
46377;SDS011;32083;47.360;9.650;2023-12-07T09:50:50;4.82;;;3.17;;
46377;SDS011;32083;47.360;9.650;2023-12-07T09:53:20;4.07;;;3.20;;
46377;SDS011;32083;47.360;9.650;2023-12-07T09:55:47;15.00;;;10.30;;
46377;SDS011;32083;47.360;9.650;2023-12-07T09:58:14;22.73;;;14.70;;
46377;SDS011;32083;47.360;9.650;2023-12-07T10:00:40;21.73;;;17.13;;
46377;SDS011;32083;47.360;9.650;2023-12-07T10:03:06;13.55;;;9.93;;
46377;SDS011;32083;47.360;9.650;2023-12-07T10:06:03;11.00;;;8.98;;
46377;SDS011;32083;47.360;9.650;2023-12-07T10:08:30;15.38;;;11.23;;
46377;SDS011;32083;47.360;9.650;2023-12-07T10:11:04;20.50;;;15.20;;
46377;SDS011;32083;47.360;9.650;2023-12-07T10:13:31;22.08;;;17.23;;
46377;SDS011;32083;47.360;9.650;2023-12-07T10:16:31;21.95;;;16.20;;
46377;SDS011;32083;47.360;9.650;2023-12-07T10:18:50;24.92;;;18.33;;
46377;SDS011;32083;47.360;9.650;2023-12-07T10:21:16;19.52;;;14.80;;
46377;SDS011;32083;47.360;9.650;2023-12-07T10:23:56;14.63;;;10.60;;
46377;SDS011;32083;47.360;9.650;2023-12-07T10:26:23;9.70;;;6.35;;
46377;SDS011;32083;47.360;9.650;2023-12-07T10:28:52;6.55;;;4.60;;
46377;SDS011;32083;47.360;9.650;2023-12-07T10:31:19;8.77;;;6.50;;
46377;SDS011;32083;47.360;9.650;2023-12-07T10:33:49;5.28;;;4.30;;
46377;SDS011;32083;47.360;9.650;2023-12-07T10:36:15;5.68;;;3.75;;
46377;SDS011;32083;47.360;9.650;2023-12-07T10:38:41;3.40;;;2.58;;
46377;SDS011;32083;47.360;9.650;2023-12-07T10:41:07;2.67;;;1.80;;
46377;SDS011;32083;47.360;9.650;2023-12-07T10:43:37;2.75;;;1.95;;
46377;SDS011;32083;47.360;9.650;2023-12-07T10:46:08;2.42;;;2.00;;
46377;SDS011;32083;47.360;9.650;2023-12-07T10:48:34;4.25;;;2.70;;
46377;SDS011;32083;47.360;9.650;2023-12-07T10:51:06;3.50;;;2.90;;
46377;SDS011;32083;47.360;9.650;2023-12-07T10:53:40;7.45;;;4.70;;
46377;SDS011;32083;47.360;9.650;2023-12-07T10:56:13;4.97;;;4.00;;
46377;SDS011;32083;47.360;9.650;2023-12-07T10:58:45;4.68;;;3.45;;
46377;SDS011;32083;47.360;9.650;2023-12-07T11:01:13;3.05;;;2.55;;
46377;SDS011;32083;47.360;9.650;2023-12-07T11:03:43;4.80;;;3.97;;
46377;SDS011;32083;47.360;9.650;2023-12-07T11:06:09;3.13;;;2.63;;
46377;SDS011;32083;47.360;9.650;2023-12-07T11:08:40;3.33;;;2.92;;
46377;SDS011;32083;47.360;9.650;2023-12-07T11:13:52;3.28;;;2.13;;
46377;SDS011;32083;47.360;9.650;2023-12-07T11:16:30;4.18;;;2.80;;
46377;SDS011;32083;47.360;9.650;2023-12-07T11:19:00;3.03;;;1.90;;
46377;SDS011;32083;47.360;9.650;2023-12-07T11:21:26;2.03;;;1.42;;
46377;SDS011;32083;47.360;9.650;2023-12-07T11:23:53;3.92;;;1.60;;
46377;SDS011;32083;47.360;9.650;2023-12-07T11:26:20;2.83;;;1.90;;
46377;SDS011;32083;47.360;9.650;2023-12-07T11:28:51;11.98;;;5.45;;
46377;SDS011;32083;47.360;9.650;2023-12-07T11:31:20;8.77;;;5.07;;
46377;SDS011;32083;47.360;9.650;2023-12-07T11:33:47;10.48;;;4.90;;
46377;SDS011;32083;47.360;9.650;2023-12-07T11:36:13;9.05;;;3.47;;
46377;SDS011;32083;47.360;9.650;2023-12-07T11:41:34;7.53;;;4.50;;
46377;SDS011;32083;47.360;9.650;2023-12-07T11:44:09;6.28;;;4.00;;
46377;SDS011;32083;47.360;9.650;2023-12-07T11:46:38;5.97;;;3.97;;
46377;SDS011;32083;47.360;9.650;2023-12-07T11:49:04;4.95;;;4.05;;
46377;SDS011;32083;47.360;9.650;2023-12-07T11:51:35;4.45;;;3.15;;
46377;SDS011;32083;47.360;9.650;2023-12-07T11:54:02;3.90;;;2.90;;
46377;SDS011;32083;47.360;9.650;2023-12-07T11:56:28;3.47;;;2.50;;
46377;SDS011;32083;47.360;9.650;2023-12-07T11:58:55;2.28;;;2.08;;
46377;SDS011;32083;47.360;9.650;2023-12-07T12:01:24;2.80;;;1.90;;
46377;SDS011;32083;47.360;9.650;2023-12-07T12:03:53;3.17;;;2.42;;
46377;SDS011;32083;47.360;9.650;2023-12-07T12:06:19;3.75;;;2.25;;
46377;SDS011;32083;47.360;9.650;2023-12-07T12:08:45;3.03;;;2.22;;
46377;SDS011;32083;47.360;9.650;2023-12-07T12:11:11;2.10;;;1.83;;
46377;SDS011;32083;47.360;9.650;2023-12-07T12:13:37;2.35;;;1.88;;
46377;SDS011;32083;47.360;9.650;2023-12-07T12:16:04;3.78;;;1.90;;
46377;SDS011;32083;47.360;9.650;2023-12-07T12:18:30;3.10;;;1.85;;
46377;SDS011;32083;47.360;9.650;2023-12-07T12:20:58;2.72;;;2.00;;
46377;SDS011;32083;47.360;9.650;2023-12-07T12:23:24;2.58;;;2.20;;
46377;SDS011;32083;47.360;9.650;2023-12-07T12:25:50;4.57;;;2.95;;
46377;SDS011;32083;47.360;9.650;2023-12-07T12:28:17;3.33;;;2.53;;
46377;SDS011;32083;47.360;9.650;2023-12-07T12:30:46;4.30;;;3.08;;
46377;SDS011;32083;47.360;9.650;2023-12-07T12:33:13;5.78;;;4.05;;
46377;SDS011;32083;47.360;9.650;2023-12-07T12:35:39;4.97;;;3.70;;
46377;SDS011;32083;47.360;9.650;2023-12-07T12:38:09;3.30;;;2.90;;
46377;SDS011;32083;47.360;9.650;2023-12-07T12:40:37;3.42;;;2.88;;
46377;SDS011;32083;47.360;9.650;2023-12-07T12:43:03;3.72;;;2.65;;
46377;SDS011;32083;47.360;9.650;2023-12-07T12:45:30;5.28;;;2.78;;
46377;SDS011;32083;47.360;9.650;2023-12-07T12:47:58;4.18;;;2.70;;
46377;SDS011;32083;47.360;9.650;2023-12-07T12:50:37;2.60;;;2.20;;
46377;SDS011;32083;47.360;9.650;2023-12-07T12:53:05;6.00;;;4.50;;
46377;SDS011;32083;47.360;9.650;2023-12-07T12:55:33;4.78;;;3.33;;
46377;SDS011;32083;47.360;9.650;2023-12-07T12:58:00;2.80;;;2.20;;
46377;SDS011;32083;47.360;9.650;2023-12-07T13:00:29;3.10;;;2.55;;
46377;SDS011;32083;47.360;9.650;2023-12-07T13:02:57;3.85;;;2.00;;
46377;SDS011;32083;47.360;9.650;2023-12-07T13:05:25;3.90;;;2.55;;
46377;SDS011;32083;47.360;9.650;2023-12-07T13:07:51;4.65;;;1.98;;
46377;SDS011;32083;47.360;9.650;2023-12-07T13:10:19;4.43;;;3.72;;
46377;SDS011;32083;47.360;9.650;2023-12-07T13:12:46;5.70;;;3.35;;
46377;SDS011;32083;47.360;9.650;2023-12-07T13:15:12;4.13;;;3.13;;
46377;SDS011;32083;47.360;9.650;2023-12-07T13:17:39;4.25;;;2.80;;
46377;SDS011;32083;47.360;9.650;2023-12-07T13:20:06;3.17;;;2.83;;
46377;SDS011;32083;47.360;9.650;2023-12-07T13:22:41;5.40;;;2.75;;
46377;SDS011;32083;47.360;9.650;2023-12-07T13:25:11;5.28;;;2.95;;
46377;SDS011;32083;47.360;9.650;2023-12-07T13:27:39;4.03;;;3.22;;
46377;SDS011;32083;47.360;9.650;2023-12-07T13:30:06;6.55;;;2.10;;
46377;SDS011;32083;47.360;9.650;2023-12-07T13:32:33;3.10;;;1.88;;
46377;SDS011;32083;47.360;9.650;2023-12-07T13:35:02;3.50;;;2.63;;
46377;SDS011;32083;47.360;9.650;2023-12-07T13:37:32;2.78;;;1.75;;
46377;SDS011;32083;47.360;9.650;2023-12-07T13:39:59;3.35;;;3.05;;
46377;SDS011;32083;47.360;9.650;2023-12-07T13:42:26;3.20;;;1.85;;
46377;SDS011;32083;47.360;9.650;2023-12-07T13:44:56;3.42;;;1.63;;
46377;SDS011;32083;47.360;9.650;2023-12-07T13:47:24;2.55;;;1.95;;
46377;SDS011;32083;47.360;9.650;2023-12-07T13:49:55;2.50;;;1.83;;
46377;SDS011;32083;47.360;9.650;2023-12-07T13:52:22;3.03;;;1.63;;
46377;SDS011;32083;47.360;9.650;2023-12-07T13:54:48;3.83;;;2.60;;
46377;SDS011;32083;47.360;9.650;2023-12-07T13:57:15;3.97;;;1.80;;
46377;SDS011;32083;47.360;9.650;2023-12-07T13:59:41;1.75;;;1.45;;
46377;SDS011;32083;47.360;9.650;2023-12-07T14:02:07;1.55;;;1.30;;
46377;SDS011;32083;47.360;9.650;2023-12-07T14:04:34;1.88;;;1.45;;
46377;SDS011;32083;47.360;9.650;2023-12-07T14:07:10;2.78;;;1.80;;
46377;SDS011;32083;47.360;9.650;2023-12-07T14:09:37;3.60;;;1.55;;
46377;SDS011;32083;47.360;9.650;2023-12-07T14:12:08;2.80;;;1.95;;
46377;SDS011;32083;47.360;9.650;2023-12-07T14:14:45;3.17;;;2.17;;
46377;SDS011;32083;47.360;9.650;2023-12-07T14:17:12;3.95;;;1.73;;
46377;SDS011;32083;47.360;9.650;2023-12-07T14:19:39;3.42;;;1.70;;
46377;SDS011;32083;47.360;9.650;2023-12-07T14:22:06;4.90;;;1.00;;
46377;SDS011;32083;47.360;9.650;2023-12-07T14:24:34;2.25;;;2.05;;
46377;SDS011;32083;47.360;9.650;2023-12-07T14:27:05;2.47;;;1.52;;
46377;SDS011;32083;47.360;9.650;2023-12-07T14:29:32;2.20;;;1.58;;
46377;SDS011;32083;47.360;9.650;2023-12-07T14:31:58;3.80;;;3.00;;
46377;SDS011;32083;47.360;9.650;2023-12-07T14:34:25;3.15;;;1.98;;
46377;SDS011;32083;47.360;9.650;2023-12-07T14:36:52;7.95;;;2.95;;
46377;SDS011;32083;47.360;9.650;2023-12-07T14:39:19;6.63;;;3.70;;
46377;SDS011;32083;47.360;9.650;2023-12-07T14:41:46;5.82;;;4.05;;
46377;SDS011;32083;47.360;9.650;2023-12-07T14:44:14;6.00;;;3.65;;
46377;SDS011;32083;47.360;9.650;2023-12-07T14:46:42;5.30;;;3.40;;
46377;SDS011;32083;47.360;9.650;2023-12-07T14:49:09;5.20;;;3.50;;
46377;SDS011;32083;47.360;9.650;2023-12-07T14:51:36;5.53;;;3.53;;
46377;SDS011;32083;47.360;9.650;2023-12-07T14:54:03;6.65;;;3.40;;
46377;SDS011;32083;47.360;9.650;2023-12-07T14:56:29;4.43;;;3.22;;
46377;SDS011;32083;47.360;9.650;2023-12-07T14:58:55;4.60;;;3.53;;
46377;SDS011;32083;47.360;9.650;2023-12-07T15:01:23;5.38;;;2.90;;
46377;SDS011;32083;47.360;9.650;2023-12-07T15:03:51;3.20;;;2.63;;
46377;SDS011;32083;47.360;9.650;2023-12-07T15:06:17;5.28;;;3.55;;
46377;SDS011;32083;47.360;9.650;2023-12-07T15:08:43;3.97;;;3.08;;
46377;SDS011;32083;47.360;9.650;2023-12-07T15:11:10;3.78;;;2.65;;
46377;SDS011;32083;47.360;9.650;2023-12-07T15:13:36;4.05;;;2.30;;
46377;SDS011;32083;47.360;9.650;2023-12-07T15:16:02;6.60;;;3.65;;
46377;SDS011;32083;47.360;9.650;2023-12-07T15:18:29;5.20;;;3.33;;
46377;SDS011;32083;47.360;9.650;2023-12-07T15:20:59;5.85;;;4.03;;
46377;SDS011;32083;47.360;9.650;2023-12-07T15:23:27;11.40;;;7.13;;
46377;SDS011;32083;47.360;9.650;2023-12-07T15:25:53;4.63;;;3.30;;
46377;SDS011;32083;47.360;9.650;2023-12-07T15:28:20;4.65;;;3.97;;
46377;SDS011;32083;47.360;9.650;2023-12-07T15:30:47;5.28;;;3.85;;
46377;SDS011;32083;47.360;9.650;2023-12-07T15:33:13;4.75;;;3.35;;
46377;SDS011;32083;47.360;9.650;2023-12-07T15:35:40;5.22;;;4.00;;
46377;SDS011;32083;47.360;9.650;2023-12-07T15:38:06;6.00;;;5.18;;
46377;SDS011;32083;47.360;9.650;2023-12-07T15:40:33;8.02;;;7.22;;
46377;SDS011;32083;47.360;9.650;2023-12-07T15:42:59;8.85;;;5.75;;
46377;SDS011;32083;47.360;9.650;2023-12-07T15:45:25;5.90;;;4.78;;
46377;SDS011;32083;47.360;9.650;2023-12-07T15:47:51;8.75;;;5.32;;
46377;SDS011;32083;47.360;9.650;2023-12-07T15:50:17;6.30;;;4.93;;
46377;SDS011;32083;47.360;9.650;2023-12-07T15:52:43;7.20;;;5.18;;
46377;SDS011;32083;47.360;9.650;2023-12-07T15:55:09;7.63;;;5.50;;
46377;SDS011;32083;47.360;9.650;2023-12-07T15:57:35;6.63;;;5.70;;
46377;SDS011;32083;47.360;9.650;2023-12-07T16:00:01;9.23;;;5.93;;
46377;SDS011;32083;47.360;9.650;2023-12-07T16:02:28;8.13;;;5.60;;
46377;SDS011;32083;47.360;9.650;2023-12-07T16:04:54;7.28;;;5.97;;
46377;SDS011;32083;47.360;9.650;2023-12-07T16:07:20;12.38;;;7.32;;
46377;SDS011;32083;47.360;9.650;2023-12-07T16:09:46;6.15;;;4.85;;
46377;SDS011;32083;47.360;9.650;2023-12-07T16:12:13;8.35;;;5.07;;
46377;SDS011;32083;47.360;9.650;2023-12-07T16:14:39;8.13;;;5.97;;
46377;SDS011;32083;47.360;9.650;2023-12-07T16:17:05;12.15;;;9.15;;
46377;SDS011;32083;47.360;9.650;2023-12-07T16:19:32;10.82;;;9.13;;
46377;SDS011;32083;47.360;9.650;2023-12-07T16:21:59;12.15;;;10.80;;
46377;SDS011;32083;47.360;9.650;2023-12-07T16:24:24;15.55;;;12.52;;
46377;SDS011;32083;47.360;9.650;2023-12-07T16:26:51;14.55;;;11.43;;
46377;SDS011;32083;47.360;9.650;2023-12-07T16:29:17;16.35;;;11.32;;
46377;SDS011;32083;47.360;9.650;2023-12-07T16:31:46;15.10;;;12.25;;
46377;SDS011;32083;47.360;9.650;2023-12-07T16:34:12;14.65;;;12.65;;
46377;SDS011;32083;47.360;9.650;2023-12-07T16:36:38;13.57;;;8.90;;
46377;SDS011;32083;47.360;9.650;2023-12-07T16:39:05;12.90;;;9.65;;
46377;SDS011;32083;47.360;9.650;2023-12-07T16:41:32;13.90;;;9.13;;
46377;SDS011;32083;47.360;9.650;2023-12-07T16:43:58;9.10;;;6.57;;
46377;SDS011;32083;47.360;9.650;2023-12-07T16:46:25;11.63;;;6.97;;
46377;SDS011;32083;47.360;9.650;2023-12-07T16:48:51;13.80;;;6.50;;
46377;SDS011;32083;47.360;9.650;2023-12-07T16:51:18;9.60;;;5.85;;
46377;SDS011;32083;47.360;9.650;2023-12-07T16:53:44;10.52;;;6.65;;
46377;SDS011;32083;47.360;9.650;2023-12-07T16:56:10;8.88;;;6.35;;
46377;SDS011;32083;47.360;9.650;2023-12-07T16:58:37;8.18;;;5.63;;
46377;SDS011;32083;47.360;9.650;2023-12-07T17:01:03;9.23;;;6.30;;
46377;SDS011;32083;47.360;9.650;2023-12-07T17:03:29;8.60;;;5.70;;
46377;SDS011;32083;47.360;9.650;2023-12-07T17:05:58;7.30;;;4.72;;
46377;SDS011;32083;47.360;9.650;2023-12-07T17:08:24;6.07;;;3.97;;
46377;SDS011;32083;47.360;9.650;2023-12-07T17:10:51;7.13;;;4.70;;
46377;SDS011;32083;47.360;9.650;2023-12-07T17:13:18;30.20;;;17.92;;
46377;SDS011;32083;47.360;9.650;2023-12-07T17:15:44;23.85;;;14.95;;
46377;SDS011;32083;47.360;9.650;2023-12-07T17:18:10;20.92;;;13.13;;
46377;SDS011;32083;47.360;9.650;2023-12-07T17:20:39;16.17;;;9.43;;
46377;SDS011;32083;47.360;9.650;2023-12-07T17:23:05;18.75;;;12.80;;
46377;SDS011;32083;47.360;9.650;2023-12-07T17:25:31;22.67;;;18.40;;
46377;SDS011;32083;47.360;9.650;2023-12-07T17:27:58;24.45;;;18.58;;
46377;SDS011;32083;47.360;9.650;2023-12-07T17:30:24;26.02;;;19.30;;
46377;SDS011;32083;47.360;9.650;2023-12-07T17:32:50;21.08;;;16.80;;
46377;SDS011;32083;47.360;9.650;2023-12-07T17:35:17;24.17;;;17.48;;
46377;SDS011;32083;47.360;9.650;2023-12-07T17:37:43;27.58;;;16.20;;
46377;SDS011;32083;47.360;9.650;2023-12-07T17:40:09;15.35;;;11.27;;
46377;SDS011;32083;47.360;9.650;2023-12-07T17:42:35;8.52;;;5.75;;
46377;SDS011;32083;47.360;9.650;2023-12-07T17:45:01;3.70;;;1.90;;
46377;SDS011;32083;47.360;9.650;2023-12-07T17:47:27;3.22;;;1.42;;
46377;SDS011;32083;47.360;9.650;2023-12-07T17:49:53;3.78;;;1.60;;
46377;SDS011;32083;47.360;9.650;2023-12-07T17:52:20;2.38;;;1.98;;
46377;SDS011;32083;47.360;9.650;2023-12-07T17:54:46;3.22;;;2.13;;
46377;SDS011;32083;47.360;9.650;2023-12-07T17:57:12;4.43;;;2.67;;
46377;SDS011;32083;47.360;9.650;2023-12-07T17:59:38;5.00;;;3.00;;
46377;SDS011;32083;47.360;9.650;2023-12-07T18:02:05;5.65;;;3.40;;
46377;SDS011;32083;47.360;9.650;2023-12-07T18:04:32;4.20;;;3.33;;
46377;SDS011;32083;47.360;9.650;2023-12-07T18:07:01;6.80;;;4.72;;
46377;SDS011;32083;47.360;9.650;2023-12-07T18:09:28;8.65;;;6.32;;
46377;SDS011;32083;47.360;9.650;2023-12-07T18:11:54;9.55;;;6.35;;
46377;SDS011;32083;47.360;9.650;2023-12-07T18:14:21;12.30;;;8.65;;
46377;SDS011;32083;47.360;9.650;2023-12-07T18:16:47;11.35;;;8.52;;
46377;SDS011;32083;47.360;9.650;2023-12-07T18:19:13;12.57;;;9.77;;
46377;SDS011;32083;47.360;9.650;2023-12-07T18:21:40;16.52;;;12.00;;
46377;SDS011;32083;47.360;9.650;2023-12-07T18:24:06;14.23;;;9.25;;
46377;SDS011;32083;47.360;9.650;2023-12-07T18:26:33;13.18;;;9.45;;
46377;SDS011;32083;47.360;9.650;2023-12-07T18:29:04;12.40;;;9.23;;
46377;SDS011;32083;47.360;9.650;2023-12-07T18:31:33;12.32;;;9.43;;
46377;SDS011;32083;47.360;9.650;2023-12-07T18:34:00;13.13;;;9.57;;
46377;SDS011;32083;47.360;9.650;2023-12-07T18:36:26;15.77;;;12.40;;
46377;SDS011;32083;47.360;9.650;2023-12-07T18:38:52;20.20;;;13.25;;
46377;SDS011;32083;47.360;9.650;2023-12-07T18:41:18;14.77;;;11.40;;
46377;SDS011;32083;47.360;9.650;2023-12-07T18:43:44;16.40;;;12.52;;
46377;SDS011;32083;47.360;9.650;2023-12-07T18:46:10;16.83;;;12.70;;
46377;SDS011;32083;47.360;9.650;2023-12-07T18:48:37;24.23;;;15.40;;
46377;SDS011;32083;47.360;9.650;2023-12-07T18:51:03;21.45;;;14.50;;
46377;SDS011;32083;47.360;9.650;2023-12-07T18:53:30;32.50;;;19.60;;
46377;SDS011;32083;47.360;9.650;2023-12-07T18:55:57;16.77;;;10.57;;
46377;SDS011;32083;47.360;9.650;2023-12-07T18:58:24;33.75;;;22.70;;
46377;SDS011;32083;47.360;9.650;2023-12-07T19:00:51;26.52;;;18.45;;
46377;SDS011;32083;47.360;9.650;2023-12-07T19:03:21;21.67;;;16.60;;
46377;SDS011;32083;47.360;9.650;2023-12-07T19:05:47;34.92;;;27.15;;
46377;SDS011;32083;47.360;9.650;2023-12-07T19:08:14;22.73;;;17.17;;
46377;SDS011;32083;47.360;9.650;2023-12-07T19:10:43;23.40;;;17.42;;
46377;SDS011;32083;47.360;9.650;2023-12-07T19:13:09;24.73;;;17.45;;
46377;SDS011;32083;47.360;9.650;2023-12-07T19:15:36;20.17;;;14.60;;
46377;SDS011;32083;47.360;9.650;2023-12-07T19:18:02;22.77;;;15.82;;
46377;SDS011;32083;47.360;9.650;2023-12-07T19:20:28;19.90;;;15.38;;
46377;SDS011;32083;47.360;9.650;2023-12-07T19:22:54;25.80;;;15.57;;
46377;SDS011;32083;47.360;9.650;2023-12-07T19:25:22;18.92;;;13.20;;
46377;SDS011;32083;47.360;9.650;2023-12-07T19:27:48;16.95;;;10.95;;
46377;SDS011;32083;47.360;9.650;2023-12-07T19:30:15;11.02;;;7.32;;
46377;SDS011;32083;47.360;9.650;2023-12-07T19:32:40;7.15;;;5.40;;
46377;SDS011;32083;47.360;9.650;2023-12-07T19:35:06;4.45;;;3.20;;
46377;SDS011;32083;47.360;9.650;2023-12-07T19:37:33;4.35;;;2.60;;